Time;durP1;ratioP1;P1;durP2;ratioP2;P2;SDS_P1;SDS_P2;PMS_P1;PMS_P2;Temp;Humidity;BMP_temperature;BMP_pressure;BME280_temperature;BME280_humidity;BME280_pressure;Samples;Min_cycle;Max_cycle;Signal;HPM_P1;HPM_P2
2024/01/27 00:02:18;;;;;;;4.40;2.60;;;;;;;6.31;93.84;100619.44;107445;1286;1002960;-60
2024/01/27 00:04:44;;;;;;;4.90;2.90;;;;;;;6.29;94.06;100622.38;108184;1276;21996;-64
2024/01/27 00:07:09;;;;;;;3.70;2.20;;;;;;;6.32;94.03;100620.66;108280;1286;21985;-64
2024/01/27 00:09:35;;;;;;;4.30;2.00;;;;;;;6.39;94.00;100621.07;108171;1278;21999;-64
2024/01/27 00:12:01;;;;;;;3.20;2.20;;;;;;;6.40;93.85;100622.12;108297;1277;22031;-63
2024/01/27 00:14:27;;;;;;;4.60;2.20;;;;;;;6.38;93.67;100624.04;108262;1286;22006;-64
2024/01/27 00:16:53;;;;;;;5.10;2.80;;;;;;;6.44;93.77;100623.20;108175;1283;21999;-59
2024/01/27 00:19:18;;;;;;;4.80;2.40;;;;;;;6.47;93.76;100622.89;108134;1281;21988;-63
2024/01/27 00:21:44;;;;;;;3.40;2.00;;;;;;;6.47;93.56;100622.87;108100;1286;22452;-58
2024/01/27 00:24:09;;;;;;;4.80;2.40;;;;;;;6.48;93.76;100623.58;108117;1286;21996;-64
2024/01/27 00:26:35;;;;;;;4.60;2.50;;;;;;;6.49;93.63;100624.81;108223;1281;21994;-58
2024/01/27 00:29:00;;;;;;;3.80;2.50;;;;;;;6.48;93.51;100623.93;108175;1286;21998;-63
2024/01/27 00:31:26;;;;;;;4.10;2.30;;;;;;;6.47;93.33;100624.80;108121;1277;21987;-63
2024/01/27 00:33:52;;;;;;;4.10;2.60;;;;;;;6.46;93.43;100622.36;108178;1286;22024;-58
2024/01/27 00:36:19;;;;;;;3.80;2.30;;;;;;;6.47;93.56;100623.23;108176;1286;22454;-60
2024/01/27 00:38:45;;;;;;;3.70;2.40;;;;;;;6.45;93.29;100626.00;108097;1280;21992;-64
2024/01/27 00:41:16;;;;;;;5.70;2.80;;;;;;;6.42;93.19;100628.41;108091;1280;22024;-64
2024/01/27 00:43:42;;;;;;;4.50;2.70;;;;;;;6.40;93.15;100628.23;108273;1286;21987;-63
2024/01/27 00:46:07;;;;;;;4.20;2.40;;;;;;;6.38;93.20;100627.01;108144;1278;21983;-59
2024/01/27 00:48:33;;;;;;;3.90;2.50;;;;;;;6.34;93.26;100619.46;108145;1278;21997;-64
2024/01/27 00:50:58;;;;;;;4.40;2.50;;;;;;;6.29;93.50;100618.73;108303;1281;21997;-62
2024/01/27 00:53:24;;;;;;;3.60;2.00;;;;;;;6.23;93.47;100614.13;108215;1286;21987;-64
2024/01/27 00:55:50;;;;;;;4.50;2.60;;;;;;;6.23;93.57;100612.56;108142;1274;21989;-62
2024/01/27 00:58:16;;;;;;;4.70;2.30;;;;;;;6.22;93.72;100612.37;108192;1277;22005;-59
2024/01/27 01:00:42;;;;;;;4.20;2.40;;;;;;;6.19;93.83;100614.09;108268;1286;24319;-59
2024/01/27 01:03:07;;;;;;;4.40;2.70;;;;;;;6.20;93.75;100613.05;108283;1277;21998;-59
2024/01/27 01:05:33;;;;;;;5.70;2.50;;;;;;;6.20;93.76;100610.59;108210;1286;21990;-59
2024/01/27 01:07:58;;;;;;;3.50;2.40;;;;;;;6.16;93.57;100604.84;108261;1286;21992;-64
2024/01/27 01:10:24;;;;;;;4.50;3.00;;;;;;;6.14;93.67;100604.82;108254;1277;21990;-58
2024/01/27 01:12:50;;;;;;;4.30;2.80;;;;;;;6.07;93.73;100607.54;108198;1285;22099;-63
2024/01/27 01:15:15;;;;;;;5.50;2.50;;;;;;;6.00;93.85;100605.37;108138;1274;22026;-58
2024/01/27 01:17:41;;;;;;;5.40;3.20;;;;;;;5.99;94.07;100604.10;108131;1280;23644;-63
2024/01/27 01:20:07;;;;;;;4.60;2.90;;;;;;;5.91;94.38;100601.77;108238;1286;21990;-58
2024/01/27 01:22:33;;;;;;;6.20;3.00;;;;;;;5.93;94.21;100598.31;108275;1279;21995;-63
2024/01/27 01:24:59;;;;;;;5.00;3.00;;;;;;;5.93;94.07;100596.91;108155;1286;21975;-58
2024/01/27 01:27:24;;;;;;;5.00;3.30;;;;;;;5.93;94.00;100601.45;108094;1286;21984;-58
2024/01/27 01:29:50;;;;;;;4.60;3.20;;;;;;;5.93;93.54;100599.70;108184;1277;21990;-63
2024/01/27 01:32:15;;;;;;;7.60;3.30;;;;;;;5.95;93.59;100605.30;108134;1275;21987;-63
2024/01/27 01:34:41;;;;;;;5.00;3.20;;;;;;;5.86;94.25;100607.13;108097;1277;21991;-63
2024/01/27 01:37:06;;;;;;;6.10;3.90;;;;;;;5.85;94.38;100601.88;108115;1281;23742;-58
2024/01/27 01:39:32;;;;;;;6.20;3.20;;;;;;;5.84;94.30;100597.86;108116;1286;21986;-59
2024/01/27 01:41:57;;;;;;;5.00;3.50;;;;;;;5.80;94.30;100598.70;108144;1286;21992;-63
2024/01/27 01:44:26;;;;;;;7.60;3.70;;;;;;;5.81;94.12;100604.27;108209;1280;22012;-59
2024/01/27 01:46:51;;;;;;;5.30;3.60;;;;;;;5.84;93.84;100602.91;108230;1286;21990;-62
2024/01/27 01:49:17;;;;;;;6.60;4.00;;;;;;;5.86;93.91;100604.33;108121;1283;21988;-62
2024/01/27 01:51:42;;;;;;;4.50;3.20;;;;;;;5.89;93.85;100604.19;108257;1284;21986;-58
2024/01/27 01:54:08;;;;;;;5.70;3.70;;;;;;;5.92;93.86;100605.27;108103;1277;22022;-58
2024/01/27 01:56:34;;;;;;;5.50;3.50;;;;;;;5.94;93.58;100608.59;107504;1281;1002458;-63
2024/01/27 01:58:59;;;;;;;6.60;3.40;;;;;;;5.97;93.59;100605.13;107385;1284;1003580;-58
2024/01/27 02:01:25;;;;;;;5.30;3.70;;;;;;;5.99;93.80;100605.52;108208;1286;21987;-63
2024/01/27 02:03:54;;;;;;;5.80;3.70;;;;;;;5.99;93.91;100605.53;108233;1286;21983;-63
2024/01/27 02:06:20;;;;;;;5.60;3.40;;;;;;;6.00;93.91;100605.55;108225;1286;21992;-59
2024/01/27 02:08:45;;;;;;;4.90;3.60;;;;;;;6.00;94.02;100604.83;108266;1278;21986;-63
2024/01/27 02:11:11;;;;;;;5.70;3.80;;;;;;;6.01;93.88;100602.41;108232;1286;21986;-59
2024/01/27 02:13:36;;;;;;;5.50;3.80;;;;;;;5.92;94.51;100602.31;108177;1281;21991;-63
2024/01/27 02:16:02;;;;;;;5.10;3.90;;;;;;;5.90;94.78;100602.98;108241;1286;21985;-63
2024/01/27 02:18:28;;;;;;;6.00;4.00;;;;;;;5.88;94.72;100601.23;108290;1277;21985;-63
2024/01/27 02:20:53;;;;;;;6.80;4.50;;;;;;;5.85;95.00;100600.31;108208;1286;22002;-59
2024/01/27 02:23:19;;;;;;;7.20;4.10;;;;;;;5.77;95.50;100600.05;108132;1277;22037;-58
2024/01/27 02:25:44;;;;;;;6.70;4.30;;;;;;;5.83;95.29;100597.69;108118;1281;21992;-58
2024/01/27 02:28:10;;;;;;;6.00;3.90;;;;;;;5.81;95.39;100599.56;108113;1286;21987;-63
2024/01/27 02:30:35;;;;;;;7.60;4.20;;;;;;;5.77;95.82;100600.05;108121;1286;21996;-59
2024/01/27 02:33:01;;;;;;;6.30;4.20;;;;;;;5.80;96.11;100601.83;108180;1286;21993;-61
2024/01/27 02:35:27;;;;;;;6.70;4.30;;;;;;;5.83;95.45;100603.41;108207;1286;22000;-62
2024/01/27 02:37:55;;;;;;;7.80;4.00;;;;;;;5.81;95.61;100604.96;108270;1286;21989;-63
2024/01/27 02:40:21;;;;;;;6.10;4.10;;;;;;;5.79;95.71;100604.08;108217;1283;22012;-58
2024/01/27 02:42:46;;;;;;;5.90;4.00;;;;;;;5.81;95.24;100602.19;108176;1278;21997;-59
2024/01/27 02:45:12;;;;;;;7.40;4.20;;;;;;;5.77;95.46;100598.66;108275;1281;21961;-59
2024/01/27 02:47:38;;;;;;;6.50;4.40;;;;;;;5.81;95.38;100599.91;108204;1286;22000;-58
2024/01/27 02:50:06;;;;;;;6.60;4.40;;;;;;;5.79;95.38;100600.23;107386;1277;1003028;-64
2024/01/27 02:52:32;;;;;;;5.10;3.50;;;;;;;5.83;95.10;100599.23;108235;1286;22220;-63
2024/01/27 02:54:58;;;;;;;6.10;4.30;;;;;;;5.84;95.07;100597.17;108183;1286;22018;-59
2024/01/27 02:57:23;;;;;;;6.30;4.10;;;;;;;5.87;94.78;100595.64;108227;1281;21986;-59
2024/01/27 02:59:49;;;;;;;6.30;4.20;;;;;;;5.90;94.75;100592.00;108108;1286;21995;-62
2024/01/27 03:02:15;;;;;;;6.60;4.20;;;;;;;5.87;94.58;100590.23;108185;1286;22006;-64
2024/01/27 03:04:41;;;;;;;7.00;4.50;;;;;;;5.89;94.50;100588.52;108238;1286;22016;-63
2024/01/27 03:07:07;;;;;;;7.60;4.10;;;;;;;5.90;94.40;100584.35;108227;1286;21986;-62
2024/01/27 03:09:32;;;;;;;8.30;4.70;;;;;;;5.83;94.92;100582.52;108118;1286;21974;-63
2024/01/27 03:11:58;;;;;;;6.00;4.10;;;;;;;5.84;94.67;100579.92;108231;1277;21992;-59
2024/01/27 03:14:24;;;;;;;6.80;4.50;;;;;;;5.82;94.46;100576.07;108255;1277;21986;-62
2024/01/27 03:16:49;;;;;;;5.50;4.00;;;;;;;5.74;94.99;100578.96;108132;1280;21986;-62
2024/01/27 03:19:15;;;;;;;8.60;4.80;;;;;;;5.74;95.02;100576.33;108249;1286;21998;-58
2024/01/27 03:21:41;;;;;;;6.90;4.20;;;;;;;5.79;94.60;100573.61;108253;1273;21991;-59
2024/01/27 03:24:06;;;;;;;7.60;4.30;;;;;;;5.80;94.30;100572.22;108236;1286;21989;-59
2024/01/27 03:26:32;;;;;;;7.60;4.50;;;;;;;5.82;94.33;100570.48;108135;1277;22003;-60
2024/01/27 03:28:57;;;;;;;6.40;4.10;;;;;;;5.75;94.50;100570.09;108108;1286;22026;-59
2024/01/27 03:31:23;;;;;;;7.50;4.60;;;;;;;5.70;94.67;100571.93;107530;1286;1002607;-63
2024/01/27 03:33:49;;;;;;;6.60;4.20;;;;;;;5.66;95.17;100571.73;108255;1283;21987;-59
2024/01/27 03:36:15;;;;;;;7.30;4.70;;;;;;;5.71;94.92;100573.52;108184;1286;21989;-63
2024/01/27 03:38:41;;;;;;;8.80;4.70;;;;;;;5.71;94.50;100572.13;108356;1284;22098;-64
2024/01/27 03:41:06;;;;;;;9.00;4.90;;;;;;;5.68;94.61;100573.15;108248;1286;22220;-59
2024/01/27 03:43:33;;;;;;;7.90;5.00;;;;;;;5.67;94.79;100574.52;108139;1282;22047;-58
2024/01/27 03:45:59;;;;;;;6.60;4.60;;;;;;;5.58;95.31;100577.91;108158;1286;22002;-63
2024/01/27 03:48:24;;;;;;;7.30;4.20;;;;;;;5.59;95.36;100579.65;108202;1281;21968;-59
2024/01/27 03:50:50;;;;;;;8.00;4.70;;;;;;;5.51;95.56;100576.78;108147;1283;21990;-63
2024/01/27 03:53:15;;;;;;;6.30;4.10;;;;;;;5.53;95.36;100576.11;108150;1287;21978;-59
2024/01/27 03:55:41;;;;;;;6.50;4.40;;;;;;;5.56;95.04;100580.31;108192;1283;21995;-63
2024/01/27 03:58:07;;;;;;;6.20;4.20;;;;;;;5.53;95.13;100580.46;108116;1288;21991;-58
2024/01/27 04:00:33;;;;;;;7.30;4.50;;;;;;;5.56;95.11;100580.14;108176;1277;22024;-63
2024/01/27 04:03:01;;;;;;;8.20;4.70;;;;;;;5.54;95.45;100581.00;108158;1284;22029;-59
2024/01/27 04:05:28;;;;;;;7.60;4.80;;;;;;;5.50;95.51;100581.30;108118;1288;21998;-63
2024/01/27 04:07:53;;;;;;;7.50;4.40;;;;;;;5.50;95.16;100578.34;108161;1288;21987;-59
2024/01/27 04:10:19;;;;;;;6.90;4.50;;;;;;;5.50;95.30;100572.75;108193;1288;22008;-60
2024/01/27 04:12:44;;;;;;;6.40;4.20;;;;;;;5.51;95.18;100570.69;108124;1286;22050;-63
2024/01/27 04:15:10;;;;;;;6.60;4.50;;;;;;;5.54;95.05;100576.63;108134;1287;22047;-59
2024/01/27 04:17:39;;;;;;;6.90;4.20;;;;;;;5.45;95.55;100578.10;108121;1288;21994;-60
2024/01/27 04:20:06;;;;;;;6.80;4.90;;;;;;;5.41;96.20;100577.01;108122;1283;21993;-60
2024/01/27 04:22:33;;;;;;;6.20;4.30;;;;;;;5.39;96.55;100579.95;108090;1284;21997;-59
2024/01/27 04:24:59;;;;;;;8.20;4.80;;;;;;;5.43;96.16;100580.69;108080;1283;22008;-62
2024/01/27 04:27:29;;;;;;;6.30;4.60;;;;;;;5.44;96.18;100581.92;108121;1284;21994;-63
2024/01/27 04:29:59;;;;;;;8.10;4.60;;;;;;;5.45;96.38;100582.28;108162;1276;22004;-59
2024/01/27 04:32:26;;;;;;;7.30;4.70;;;;;;;5.49;95.87;100577.63;108143;1276;22086;-60
2024/01/27 04:34:52;;;;;;;7.60;4.90;;;;;;;5.54;95.29;100578.55;108041;1288;21995;-62
2024/01/27 04:37:18;;;;;;;7.20;4.80;;;;;;;5.55;95.13;100580.65;108109;1277;21992;-63
2024/01/27 04:39:43;;;;;;;6.50;4.30;;;;;;;5.54;95.19;100581.16;108138;1283;21997;-63
2024/01/27 04:42:09;;;;;;;8.00;4.90;;;;;;;5.55;95.01;100581.34;108125;1287;22115;-63
2024/01/27 04:44:35;;;;;;;8.30;5.20;;;;;;;5.55;95.11;100584.65;108128;1288;22027;-59
2024/01/27 04:47:00;;;;;;;7.60;4.00;;;;;;;5.54;95.30;100580.63;108120;1288;21990;-63
2024/01/27 04:49:26;;;;;;;8.90;4.90;;;;;;;5.56;95.21;100580.49;108120;1288;21970;-64
2024/01/27 04:51:52;;;;;;;7.30;4.40;;;;;;;5.58;94.93;100582.09;108076;1283;21998;-59
2024/01/27 04:54:17;;;;;;;6.50;4.70;;;;;;;5.58;94.79;100584.86;108128;1277;21992;-64
2024/01/27 04:56:43;;;;;;;7.80;5.00;;;;;;;5.55;94.69;100583.96;108111;1288;21995;-59
2024/01/27 04:59:08;;;;;;;11.30;6.20;;;;;;;5.53;94.77;100585.86;108134;1283;21990;-60
2024/01/27 05:01:34;;;;;;;11.30;6.10;;;;;;;5.48;95.02;100586.69;108102;1284;21991;-65
2024/01/27 05:03:59;;;;;;;9.60;5.50;;;;;;;5.48;95.00;100591.20;108129;1283;21995;-63
2024/01/27 05:06:25;;;;;;;8.50;5.40;;;;;;;5.43;95.36;100593.22;108130;1288;21957;-60
2024/01/27 05:08:51;;;;;;;7.00;4.90;;;;;;;5.42;95.29;100597.38;108143;1288;22016;-61
2024/01/27 05:11:25;;;;;;;8.20;5.10;;;;;;;5.43;95.38;100600.36;108124;1277;21995;-60
2024/01/27 05:13:51;;;;;;;8.80;5.50;;;;;;;5.42;95.47;100599.64;108120;1288;21998;-63
2024/01/27 05:16:16;;;;;;;8.00;5.10;;;;;;;5.43;95.56;100600.19;108127;1285;21986;-64
2024/01/27 05:18:42;;;;;;;6.80;4.90;;;;;;;5.49;95.08;100602.52;108099;1281;21996;-60
2024/01/27 05:21:07;;;;;;;9.50;5.10;;;;;;;5.54;94.74;100604.84;108105;1277;21992;-63
2024/01/27 05:23:33;;;;;;;6.70;4.70;;;;;;;5.57;94.61;100611.48;108109;1288;22031;-63
2024/01/27 05:25:58;;;;;;;7.70;4.30;;;;;;;5.59;94.84;100615.34;108079;1288;22002;-60
2024/01/27 05:28:24;;;;;;;8.10;4.60;;;;;;;5.61;94.72;100618.67;108116;1281;22007;-62
2024/01/27 05:30:49;;;;;;;9.90;4.40;;;;;;;5.65;94.89;100624.98;108138;1288;21993;-62
2024/01/27 05:33:16;;;;;;;7.30;4.90;;;;;;;5.71;95.26;100627.67;108128;1288;21991;-63
2024/01/27 05:35:41;;;;;;;7.80;5.30;;;;;;;5.77;94.93;100630.52;108167;1283;22016;-60
2024/01/27 05:38:07;;;;;;;7.00;4.90;;;;;;;5.78;94.81;100634.02;108112;1283;21989;-64
2024/01/27 05:40:32;;;;;;;9.10;5.00;;;;;;;5.77;94.45;100635.91;108149;1277;21992;-61
2024/01/27 05:42:58;;;;;;;8.00;5.10;;;;;;;5.78;94.16;100635.94;108047;1288;21990;-61
2024/01/27 05:45:23;;;;;;;7.40;4.80;;;;;;;5.80;93.83;100636.99;108168;1277;21997;-64
2024/01/27 05:47:50;;;;;;;7.00;4.90;;;;;;;5.82;93.83;100631.97;108140;1288;21995;-60
2024/01/27 05:50:16;;;;;;;6.00;4.20;;;;;;;5.84;93.81;100630.95;108138;1284;22001;-64
2024/01/27 05:52:41;;;;;;;7.60;4.60;;;;;;;5.86;93.57;100634.63;108167;1285;21998;-60
2024/01/27 05:55:08;;;;;;;7.40;4.40;;;;;;;5.89;93.90;100637.80;108173;1288;22000;-62
2024/01/27 05:57:34;;;;;;;8.70;5.30;;;;;;;5.90;93.70;100635.38;108185;1288;21998;-64
2024/01/27 05:59:59;;;;;;;7.10;4.20;;;;;;;5.91;93.79;100635.57;108119;1280;21990;-60
2024/01/27 06:02:25;;;;;;;6.20;4.00;;;;;;;5.93;93.41;100638.02;108197;1288;21963;-64
2024/01/27 06:04:50;;;;;;;7.20;4.80;;;;;;;5.96;93.43;100637.17;108097;1277;21993;-64
2024/01/27 06:07:16;;;;;;;8.50;5.10;;;;;;;5.99;93.66;100638.09;108131;1288;21992;-63
2024/01/27 06:09:42;;;;;;;10.00;5.40;;;;;;;6.00;93.42;100640.20;108132;1277;21980;-62
2024/01/27 06:12:07;;;;;;;8.20;5.40;;;;;;;6.01;93.43;100644.41;108170;1287;21990;-64
2024/01/27 06:14:33;;;;;;;7.70;5.00;;;;;;;6.03;93.54;100649.30;108142;1278;21988;-64
2024/01/27 06:16:59;;;;;;;6.80;4.60;;;;;;;6.02;93.26;100648.77;108179;1277;21996;-60
2024/01/27 06:19:25;;;;;;;7.10;4.70;;;;;;;6.01;92.91;100648.93;108153;1285;21990;-60
2024/01/27 06:21:51;;;;;;;6.90;5.00;;;;;;;6.02;92.94;100648.06;108092;1288;21998;-60
2024/01/27 06:24:16;;;;;;;8.30;5.10;;;;;;;6.04;93.24;100645.83;108109;1288;22051;-60
2024/01/27 06:26:42;;;;;;;9.70;5.10;;;;;;;6.05;92.81;100642.89;108142;1288;22004;-64
2024/01/27 06:29:07;;;;;;;9.80;5.70;;;;;;;6.04;92.63;100639.92;108141;1283;21990;-60
2024/01/27 06:31:33;;;;;;;7.20;4.70;;;;;;;6.05;92.55;100641.31;108167;1277;21996;-60
2024/01/27 06:33:58;;;;;;;8.90;4.90;;;;;;;6.07;92.47;100638.04;108106;1288;22009;-61
2024/01/27 06:36:25;;;;;;;8.40;4.40;;;;;;;6.09;92.52;100638.40;107360;1287;1002577;-64
2024/01/27 06:38:51;;;;;;;6.70;4.10;;;;;;;6.09;92.54;100638.41;108162;1288;21991;-64
2024/01/27 06:41:17;;;;;;;6.90;4.10;;;;;;;6.11;92.31;100637.02;108113;1288;22021;-64
2024/01/27 06:43:42;;;;;;;6.30;4.30;;;;;;;6.13;92.64;100641.40;108128;1277;22031;-60
2024/01/27 06:46:08;;;;;;;5.50;3.40;;;;;;;6.17;92.83;100643.19;108143;1287;21995;-64
2024/01/27 06:48:33;;;;;;;5.60;3.60;;;;;;;6.19;92.47;100639.70;108114;1286;21986;-64
2024/01/27 06:50:59;;;;;;;6.00;3.80;;;;;;;6.18;92.29;100637.96;108116;1288;21993;-64
2024/01/27 06:53:25;;;;;;;7.00;4.70;;;;;;;6.19;91.78;100639.54;108118;1277;22028;-61
2024/01/27 06:55:50;;;;;;;7.40;4.20;;;;;;;6.22;92.17;100641.84;108182;1277;22457;-60
2024/01/27 06:58:16;;;;;;;6.10;3.80;;;;;;;6.26;92.38;100643.97;108155;1288;22013;-63
2024/01/27 07:00:42;;;;;;;6.90;3.90;;;;;;;6.28;92.10;100647.81;108145;1288;22013;-63
2024/01/27 07:03:07;;;;;;;7.70;4.40;;;;;;;6.31;92.33;100646.62;108144;1288;21945;-61
2024/01/27 07:05:38;;;;;;;6.30;4.00;;;;;;;6.35;92.73;100644.40;108184;1288;21993;-60
2024/01/27 07:08:08;;;;;;;6.20;4.30;;;;;;;6.37;92.56;100644.25;108141;1288;21990;-62
2024/01/27 07:10:35;;;;;;;6.50;4.20;;;;;;;6.41;93.11;100642.52;108199;1288;22000;-63
2024/01/27 07:13:00;;;;;;;6.20;4.30;;;;;;;6.42;92.80;100641.48;108204;1284;21999;-61
2024/01/27 07:15:27;;;;;;;5.90;4.50;;;;;;;6.44;92.65;100640.45;108129;1288;21992;-60
2024/01/27 07:17:53;;;;;;;6.10;4.20;;;;;;;6.44;92.71;100644.65;108148;1287;21997;-63
2024/01/27 07:20:20;;;;;;;7.00;5.00;;;;;;;6.47;93.09;100645.71;108177;1280;21989;-62
2024/01/27 07:22:47;;;;;;;6.70;4.40;;;;;;;6.53;93.11;100651.88;108140;1284;21993;-63
2024/01/27 07:25:13;;;;;;;9.10;5.00;;;;;;;6.59;93.63;100651.41;108137;1288;21986;-60
2024/01/27 07:27:39;;;;;;;8.70;5.70;;;;;;;6.66;93.85;100653.20;108197;1277;22146;-61
2024/01/27 07:30:08;;;;;;;8.20;5.50;;;;;;;6.73;93.90;100651.17;108180;1288;22003;-62
2024/01/27 07:32:34;;;;;;;8.20;5.30;;;;;;;6.80;94.14;100649.83;108158;1288;22000;-62
2024/01/27 07:34:59;;;;;;;10.70;6.50;;;;;;;6.86;94.26;100653.19;108152;1277;22460;-62
2024/01/27 07:37:25;;;;;;;10.80;6.40;;;;;;;6.92;94.01;100656.36;108164;1288;21997;-60
2024/01/27 07:39:50;;;;;;;11.10;7.00;;;;;;;6.99;93.99;100659.56;108133;1283;23097;-60
2024/01/27 07:42:16;;;;;;;9.80;5.80;;;;;;;7.07;94.09;100656.81;108194;1287;22047;-60
2024/01/27 07:44:42;;;;;;;8.60;5.40;;;;;;;7.11;93.66;100654.56;108014;1288;173281;-60
2024/01/27 07:47:08;;;;;;;7.80;5.00;;;;;;;7.13;93.40;100654.24;108117;1277;21990;-63
2024/01/27 07:49:34;;;;;;;10.20;6.40;;;;;;;7.14;92.84;100656.34;108160;1288;21992;-60
2024/01/27 07:52:00;;;;;;;10.40;6.80;;;;;;;7.17;92.81;100660.38;108132;1284;21998;-63
2024/01/27 07:54:29;;;;;;;9.30;5.80;;;;;;;7.22;92.81;100666.34;108026;1287;22032;-62
2024/01/27 07:56:54;;;;;;;9.00;5.40;;;;;;;7.24;92.29;100668.27;108162;1288;22029;-63
2024/01/27 07:59:20;;;;;;;9.10;5.80;;;;;;;7.27;92.31;100667.59;108169;1286;22033;-60
2024/01/27 08:01:46;;;;;;;8.80;6.10;;;;;;;7.30;92.26;100666.20;108145;1278;22457;-62
2024/01/27 08:04:11;;;;;;;8.90;5.60;;;;;;;7.32;92.22;100666.73;108123;1287;22026;-61
2024/01/27 08:06:48;;;;;;;10.70;6.90;;;;;;;7.34;92.00;100668.67;108096;1283;21992;-61
2024/01/27 08:09:14;;;;;;;8.30;5.70;;;;;;;7.35;91.82;100669.37;108134;1283;21986;-63
2024/01/27 08:11:39;;;;;;;9.40;5.70;;;;;;;7.34;91.41;100669.38;108092;1276;22471;-63
2024/01/27 08:14:05;;;;;;;10.00;6.60;;;;;;;7.34;91.30;100674.08;108103;1288;22254;-62
2024/01/27 08:16:30;;;;;;;12.90;7.50;;;;;;;7.33;91.08;100672.33;108118;1287;21989;-62
2024/01/27 08:18:56;;;;;;;9.90;5.90;;;;;;;7.33;91.28;100670.77;108153;1288;21992;-62
2024/01/27 08:21:22;;;;;;;17.20;8.40;;;;;;;7.34;91.36;100669.89;108135;1281;21987;-62
2024/01/27 08:23:48;;;;;;;16.10;8.10;;;;;;;7.36;91.63;100668.33;108056;1288;22020;-60
2024/01/27 08:26:14;;;;;;;22.50;10.50;;;;;;;7.40;91.61;100668.17;108172;1288;22018;-60
2024/01/27 08:28:39;;;;;;;22.70;10.70;;;;;;;7.43;91.21;100669.25;107982;1288;22004;-62
2024/01/27 08:31:05;;;;;;;22.60;9.00;;;;;;;7.47;90.99;100676.08;108169;1287;21996;-60
2024/01/27 08:33:30;;;;;;;21.70;8.70;;;;;;;7.50;91.10;100679.75;108108;1286;21996;-62
2024/01/27 08:35:56;;;;;;;11.80;6.50;;;;;;;7.52;90.82;100680.30;108145;1288;21981;-63
2024/01/27 08:38:22;;;;;;;18.40;7.40;;;;;;;7.51;89.94;100683.27;108148;1283;21995;-60
2024/01/27 08:40:47;;;;;;;15.40;7.50;;;;;;;7.56;90.66;100683.64;108173;1288;21978;-60
2024/01/27 08:43:13;;;;;;;18.00;8.90;;;;;;;7.61;90.73;100687.85;108178;1285;22347;-61
2024/01/27 08:45:39;;;;;;;18.60;8.60;;;;;;;7.61;90.40;100685.93;108092;1288;21990;-60
2024/01/27 08:48:06;;;;;;;23.80;10.40;;;;;;;7.63;90.38;100683.48;108143;1277;21985;-60
2024/01/27 08:50:31;;;;;;;12.40;6.50;;;;;;;7.66;90.33;100685.77;108183;1286;21994;-62
2024/01/27 08:52:57;;;;;;;11.90;6.30;;;;;;;7.66;89.92;100684.56;108135;1276;21995;-59
2024/01/27 08:55:24;;;;;;;22.70;12.50;;;;;;;7.65;89.92;100684.38;108145;1277;22003;-60
2024/01/27 08:57:50;;;;;;;10.70;7.80;;;;;;;7.68;90.57;100680.55;108116;1284;22031;-62
2024/01/27 09:00:16;;;;;;;10.10;7.00;;;;;;;7.73;90.99;100681.61;108161;1287;21986;-62
2024/01/27 09:02:42;;;;;;;13.60;7.80;;;;;;;7.75;90.42;100681.80;108134;1288;21994;-62
2024/01/27 09:05:08;;;;;;;31.90;18.00;;;;;;;7.72;89.86;100682.31;108169;1288;22048;-62
2024/01/27 09:07:34;;;;;;;58.30;30.90;;;;;;;7.75;90.32;100680.05;108149;1284;22001;-62
2024/01/27 09:10:00;;;;;;;14.60;9.20;;;;;;;7.74;89.86;100677.77;108168;1288;22001;-62
2024/01/27 09:12:25;;;;;;;7.20;4.70;;;;;;;7.74;89.68;100682.66;108125;1276;21994;-61
2024/01/27 09:14:51;;;;;;;7.60;4.30;;;;;;;7.80;90.17;100676.74;108133;1284;22037;-62
2024/01/27 09:17:16;;;;;;;12.00;8.40;;;;;;;7.77;89.29;100671.67;108141;1288;21997;-62
2024/01/27 09:19:42;;;;;;;43.80;28.10;;;;;;;7.78;89.42;100672.02;108164;1285;21996;-61
2024/01/27 09:22:08;;;;;;;46.80;28.20;;;;;;;7.84;89.77;100671.35;108121;1287;21962;-62
2024/01/27 09:24:33;;;;;;;22.50;15.00;;;;;;;7.88;89.85;100671.37;108160;1288;21996;-60
2024/01/27 09:26:59;;;;;;;14.80;10.70;;;;;;;7.93;89.62;100673.13;108131;1285;21996;-60
2024/01/27 09:29:24;;;;;;;9.70;6.50;;;;;;;7.89;88.56;100675.04;108125;1277;22027;-62
2024/01/27 09:31:50;;;;;;;10.90;6.00;;;;;;;7.74;86.62;100674.80;108090;1277;22001;-60
2024/01/27 09:34:16;;;;;;;12.70;6.40;;;;;;;7.75;87.61;100671.65;108130;1288;21987;-60
2024/01/27 09:36:41;;;;;;;11.00;6.60;;;;;;;7.82;88.47;100673.96;108169;1288;21978;-62
2024/01/27 09:39:08;;;;;;;16.70;8.60;;;;;;;7.90;89.56;100673.13;107368;1281;1002818;-59
2024/01/27 09:41:33;;;;;;;19.60;9.50;;;;;;;8.00;89.81;100672.63;108234;1278;21992;-61
2024/01/27 09:44:02;;;;;;;16.00;10.30;;;;;;;8.07;89.43;100672.12;106625;1288;2002908;-61
2024/01/27 09:46:29;;;;;;;13.90;8.50;;;;;;;8.15;89.59;100671.96;108142;1284;22467;-59
2024/01/27 09:48:54;;;;;;;11.90;6.10;;;;;;;8.22;89.40;100670.41;108173;1275;21992;-62
2024/01/27 09:51:20;;;;;;;11.70;7.90;;;;;;;8.31;89.75;100665.52;108107;1286;21991;-62
2024/01/27 09:53:45;;;;;;;14.00;9.10;;;;;;;8.38;89.24;100665.71;108142;1284;23757;-60
2024/01/27 09:56:17;;;;;;;15.80;9.20;;;;;;;8.45;89.09;100668.34;107960;1280;21994;-63
2024/01/27 09:58:44;;;;;;;10.50;7.40;;;;;;;8.53;89.62;100667.52;108115;1281;22000;-62
2024/01/27 10:01:10;;;;;;;10.20;7.20;;;;;;;8.59;89.61;100666.98;108141;1283;21989;-60
2024/01/27 10:03:36;;;;;;;9.30;6.70;;;;;;;8.65;89.79;100660.00;108166;1286;22024;-62
2024/01/27 10:06:01;;;;;;;9.40;6.10;;;;;;;8.70;89.40;100657.02;107880;1286;21987;-62
2024/01/27 10:08:29;;;;;;;7.60;5.50;;;;;;;8.73;88.08;100652.13;108128;1286;21989;-62
2024/01/27 10:10:56;;;;;;;9.30;5.70;;;;;;;8.75;88.15;100653.17;108238;1284;21999;-62
2024/01/27 10:13:28;;;;;;;8.50;5.30;;;;;;;8.79;88.69;100654.39;108168;1286;22043;-60
2024/01/27 10:16:04;;;;;;;9.70;5.70;;;;;;;8.87;89.39;100654.20;108150;1278;21987;-60
2024/01/27 10:18:30;;;;;;;9.50;6.30;;;;;;;8.98;89.52;100649.48;108172;1286;22024;-60
2024/01/27 10:20:56;;;;;;;8.70;5.70;;;;;;;9.04;88.40;100649.48;108174;1286;22718;-63
2024/01/27 10:23:21;;;;;;;7.30;5.30;;;;;;;9.07;87.99;100649.47;108201;1286;22002;-61
2024/01/27 10:25:47;;;;;;;8.70;6.20;;;;;;;9.09;87.56;100651.38;108099;1286;21986;-62
2024/01/27 10:28:12;;;;;;;8.90;6.30;;;;;;;9.13;87.18;100654.34;108104;1281;22104;-62
2024/01/27 10:30:38;;;;;;;9.10;6.60;;;;;;;9.17;87.00;100658.71;108079;1286;21993;-62
2024/01/27 10:33:04;;;;;;;11.10;6.00;;;;;;;9.21;87.08;100659.42;108116;1284;22000;-61
2024/01/27 10:35:30;;;;;;;10.40;6.40;;;;;;;9.28;87.34;100656.06;108197;1281;21997;-61
2024/01/27 10:37:56;;;;;;;12.30;6.80;;;;;;;9.30;86.35;100651.16;108073;1275;22000;-60
2024/01/27 10:40:24;;;;;;;14.80;9.30;;;;;;;9.29;84.42;100653.96;108164;1274;21993;-62
2024/01/27 10:43:02;;;;;;;15.20;7.90;;;;;;;9.31;85.11;100652.04;108070;1286;21995;-60
2024/01/27 10:45:34;;;;;;;16.40;8.20;;;;;;;9.34;85.41;100653.77;108133;1286;21980;-60
2024/01/27 10:47:59;;;;;;;11.80;6.80;;;;;;;9.32;83.86;100656.23;108084;1286;22062;-61
2024/01/27 10:50:25;;;;;;;17.10;8.10;;;;;;;9.30;83.90;100653.42;108123;1286;21996;-62
2024/01/27 10:52:51;;;;;;;14.30;7.60;;;;;;;9.29;83.68;100660.27;108096;1286;21958;-62
2024/01/27 10:55:16;;;;;;;11.90;6.70;;;;;;;9.31;84.44;100661.66;107925;1274;21990;-60
2024/01/27 10:57:42;;;;;;;7.80;5.40;;;;;;;9.36;85.51;100660.25;107988;1286;21992;-62
2024/01/27 11:00:09;;;;;;;8.10;5.60;;;;;;;9.45;86.38;100662.52;108115;1286;21993;-60
2024/01/27 11:02:35;;;;;;;8.30;5.20;;;;;;;9.53;86.80;100663.17;108122;1281;21989;-62
2024/01/27 11:05:05;;;;;;;7.40;4.80;;;;;;;9.59;86.65;100667.17;108090;1278;21995;-60
2024/01/27 11:07:35;;;;;;;10.20;6.70;;;;;;;9.60;84.43;100668.59;107392;1286;1002404;-62
2024/01/27 11:10:00;;;;;;;10.30;6.20;;;;;;;9.54;83.87;100668.61;108135;1286;21991;-59
2024/01/27 11:12:26;;;;;;;7.90;5.40;;;;;;;9.49;83.78;100667.91;108132;1286;22027;-62
2024/01/27 11:14:52;;;;;;;8.60;5.60;;;;;;;9.46;83.39;100667.40;107920;1286;22001;-62
2024/01/27 11:17:18;;;;;;;7.10;4.60;;;;;;;9.46;83.01;100668.63;108171;1280;21990;-60
